Time;durP1;ratioP1;P1;durP2;ratioP2;P2;SDS_P1;SDS_P2;PMS_P1;PMS_P2;Temp;Humidity;BMP_temperature;BMP_pressure;BME280_temperature;BME280_humidity;BME280_pressure;Samples;Min_cycle;Max_cycle;Signal;HPM_P1;HPM_P2
2022/10/21 00:01:07;;;;;;;10.63;6.30;;;14.50;99.90;;;;;;5028189;28;20427;-73
2022/10/21 00:03:32;;;;;;;10.70;6.40;;;14.50;99.90;;;;;;5027805;28;20788;-73
2022/10/21 00:05:58;;;;;;;10.83;7.30;;;14.50;99.90;;;;;;5014167;28;20393;-72
2022/10/21 00:08:24;;;;;;;11.33;7.40;;;14.60;99.90;;;;;;5006901;28;20805;-73
2022/10/21 00:10:54;;;;;;;10.40;6.57;;;14.60;99.90;;;;;;5008520;28;20750;-73
2022/10/21 00:13:21;;;;;;;7.30;6.47;;;14.60;99.90;;;;;;5008052;28;20743;-72
2022/10/21 00:16:08;;;;;;;13.57;7.53;;;14.60;99.90;;;;;;5019426;28;20944;-73
2022/10/21 00:18:35;;;;;;;15.10;8.27;;;14.60;99.90;;;;;;5027807;28;20484;-73
2022/10/21 00:21:08;;;;;;;14.32;8.70;;;14.70;99.90;;;;;;5026034;28;20866;-73
2022/10/21 00:23:34;;;;;;;15.52;9.65;;;14.70;99.90;;;;;;5009000;28;20417;-73
2022/10/21 00:25:59;;;;;;;14.70;10.50;;;14.80;99.90;;;;;;5007922;28;20397;-72
2022/10/21 00:28:26;;;;;;;13.50;10.40;;;14.90;99.90;;;;;;5007689;28;20404;-72
2022/10/21 00:30:51;;;;;;;11.85;10.55;;;14.90;99.90;;;;;;5008098;28;20389;-72
2022/10/21 00:33:17;;;;;;;15.87;10.80;;;14.80;99.90;;;;;;5008307;28;20388;-73
2022/10/21 00:35:48;;;;;;;14.23;10.10;;;14.90;99.90;;;;;;5027776;28;20410;-73
2022/10/21 00:38:14;;;;;;;13.60;10.85;;;14.80;99.90;;;;;;5027603;28;20387;-72
2022/10/21 00:40:39;;;;;;;13.33;10.30;;;14.80;99.90;;;;;;5014323;28;20404;-72
2022/10/21 00:43:05;;;;;;;13.63;10.87;;;14.80;99.90;;;;;;5007584;28;20389;-73
2022/10/21 00:45:30;;;;;;;14.07;10.18;;;14.80;99.90;;;;;;5007434;28;20393;-73
2022/10/21 00:48:03;;;;;;;12.27;10.47;;;14.80;99.90;;;;;;5007490;28;20424;-73
2022/10/21 00:50:56;;;;;;;12.07;10.60;;;14.80;99.90;;;;;;5017196;28;20399;-73
2022/10/21 00:53:23;;;;;;;15.00;10.83;;;14.80;99.90;;;;;;5042307;28;20383;-73
2022/10/21 00:55:54;;;;;;;14.60;11.20;;;14.80;99.90;;;;;;5027212;28;20483;-73
2022/10/21 00:58:23;;;;;;;13.93;10.57;;;14.80;99.90;;;;;;5009221;28;20397;-73
2022/10/21 01:00:53;;;;;;;12.52;10.50;;;14.80;99.90;;;;;;5007458;28;20407;-72
2022/10/21 01:03:19;;;;;;;13.05;10.07;;;14.80;99.90;;;;;;5007070;28;20400;-73
2022/10/21 01:05:45;;;;;;;12.32;10.10;;;14.70;99.90;;;;;;5007526;28;20395;-73
2022/10/21 01:08:11;;;;;;;13.30;8.97;;;14.70;99.90;;;;;;5022216;28;20415;-73
2022/10/21 01:10:37;;;;;;;14.80;10.15;;;14.70;99.90;;;;;;5026838;28;20448;-73
2022/10/21 01:13:05;;;;;;;11.68;9.20;;;14.80;99.90;;;;;;5026960;28;20426;-73
2022/10/21 01:15:49;;;;;;;11.70;8.73;;;14.80;99.90;;;;;;5026872;28;20977;-73
2022/10/21 01:18:31;;;;;;;13.38;9.02;;;14.80;99.90;;;;;;5026917;28;20470;-73
2022/10/21 01:21:07;;;;;;;12.38;8.32;;;14.70;99.90;;;;;;4988628;28;20876;-73
2022/10/21 01:23:32;;;;;;;10.00;7.90;;;14.70;99.90;;;;;;5007031;28;20396;-73
2022/10/21 01:26:16;;;;;;;11.40;7.70;;;14.60;99.90;;;;;;5006915;28;20393;-73
2022/10/21 01:28:58;;;;;;;10.93;7.47;;;14.60;99.90;;;;;;5007017;28;20420;-72
2022/10/21 01:31:42;;;;;;;13.25;7.15;;;14.70;99.90;;;;;;5006949;28;20456;-73
2022/10/21 01:34:10;;;;;;;14.57;6.85;;;14.70;99.90;;;;;;5006675;28;20393;-73
2022/10/21 01:36:53;;;;;;;10.40;6.90;;;14.60;99.90;;;;;;5006875;28;20393;-73
2022/10/21 01:39:26;;;;;;;10.15;6.25;;;14.70;99.90;;;;;;5022808;28;20414;-73
2022/10/21 01:42:02;;;;;;;10.40;6.57;;;14.70;99.90;;;;;;5014793;28;20429;-73
2022/10/21 01:44:34;;;;;;;10.05;6.80;;;14.70;99.90;;;;;;5006348;28;20388;-73
2022/10/21 01:47:07;;;;;;;13.38;6.65;;;14.70;99.90;;;;;;5006781;28;20420;-73
2022/10/21 01:49:41;;;;;;;10.10;6.32;;;14.70;99.90;;;;;;5006751;28;20438;-73
2022/10/21 01:52:07;;;;;;;10.93;6.75;;;14.70;99.90;;;;;;5019462;28;20398;-73
2022/10/21 01:54:45;;;;;;;11.60;6.90;;;14.80;99.90;;;;;;5009057;28;20778;-73
2022/10/21 01:57:15;;;;;;;11.40;6.97;;;14.70;99.90;;;;;;5006687;28;20886;-73
2022/10/21 01:59:42;;;;;;;8.90;5.68;;;14.80;99.90;;;;;;5006690;28;20393;-73
2022/10/21 02:02:09;;;;;;;10.48;6.00;;;14.80;99.90;;;;;;5010392;28;20431;-73
2022/10/21 02:04:37;;;;;;;12.45;5.95;;;14.80;99.90;;;;;;5009795;28;20400;-73
2022/10/21 02:07:03;;;;;;;13.23;5.80;;;14.80;99.90;;;;;;5009909;28;20537;-73
2022/10/21 02:09:29;;;;;;;9.27;6.03;;;14.80;99.90;;;;;;5009874;28;20410;-73
2022/10/21 02:11:58;;;;;;;10.55;5.90;;;14.80;99.90;;;;;;5022121;28;20942;-73
2022/10/21 02:14:47;;;;;;;9.07;5.37;;;14.90;99.90;;;;;;5029234;28;20402;-72
2022/10/21 02:17:16;;;;;;;11.75;6.57;;;14.90;99.90;;;;;;5029649;28;20395;-72
2022/10/21 02:19:42;;;;;;;9.35;6.07;;;14.90;99.90;;;;;;5029472;28;20394;-73
2022/10/21 02:22:11;;;;;;;11.57;5.80;;;14.90;99.90;;;;;;5016207;28;20401;-73
2022/10/21 02:24:51;;;;;;;9.35;5.38;;;15.00;99.90;;;;;;5008334;28;20401;-72
2022/10/21 02:27:17;;;;;;;10.57;5.47;;;15.00;99.90;;;;;;5009904;28;20409;-73
2022/10/21 02:29:47;;;;;;;7.23;5.00;;;15.00;99.90;;;;;;5009939;28;20409;-73
2022/10/21 02:32:34;;;;;;;9.32;4.85;;;15.10;99.90;;;;;;5010061;28;20377;-73
2022/10/21 02:35:36;;;;;;;7.55;4.90;;;15.00;99.90;;;;;;5029286;28;20448;-73
2022/10/21 02:38:08;;;;;;;8.88;5.15;;;15.00;99.90;;;;;;4980119;28;21373;-73
2022/10/21 02:40:43;;;;;;;10.75;5.05;;;14.90;99.90;;;;;;5009769;28;20430;-73
2022/10/21 02:43:20;;;;;;;8.30;5.32;;;14.90;99.90;;;;;;5009566;28;20784;-73
2022/10/21 02:45:47;;;;;;;9.57;5.13;;;15.00;99.90;;;;;;5009618;28;20411;-71
2022/10/21 02:48:13;;;;;;;10.85;5.10;;;14.90;99.90;;;;;;5024342;28;20408;-71
2022/10/21 02:50:39;;;;;;;9.10;4.70;;;14.90;99.90;;;;;;5014148;28;20407;-71
2022/10/21 02:53:06;;;;;;;9.70;4.73;;;14.90;99.90;;;;;;5009153;28;20400;-71
2022/10/21 02:55:31;;;;;;;9.00;5.50;;;15.00;99.90;;;;;;5009295;28;20767;-72
2022/10/21 02:57:57;;;;;;;8.03;5.13;;;15.00;99.90;;;;;;5009428;28;20405;-71
2022/10/21 03:00:23;;;;;;;9.27;4.90;;;15.00;99.90;;;;;;5020573;28;20480;-71
2022/10/21 03:02:48;;;;;;;6.57;4.60;;;15.00;99.90;;;;;;5028621;28;20387;-71
2022/10/21 03:05:14;;;;;;;13.40;5.27;;;15.00;99.90;;;;;;5028984;28;20888;-72
2022/10/21 03:07:40;;;;;;;11.83;4.90;;;15.00;99.90;;;;;;5016640;28;20598;-73
2022/10/21 03:10:06;;;;;;;8.60;4.93;;;15.00;99.90;;;;;;5011347;28;20743;-73
2022/10/21 03:12:31;;;;;;;8.30;4.97;;;15.00;99.90;;;;;;5111806;28;20377;-73
2022/10/21 03:14:57;;;;;;;12.45;4.40;;;15.00;99.90;;;;;;5112485;28;20435;-73
2022/10/21 03:17:22;;;;;;;6.45;4.50;;;15.20;99.90;;;;;;5066678;28;20403;-73
2022/10/21 03:19:48;;;;;;;8.10;4.50;;;15.20;99.90;;;;;;5025193;28;20706;-73
2022/10/21 03:22:13;;;;;;;7.97;4.07;;;15.20;99.90;;;;;;5028613;28;20984;-73
2022/10/21 03:24:39;;;;;;;11.32;4.85;;;15.20;99.90;;;;;;5028404;28;20397;-74
2022/10/21 03:27:05;;;;;;;7.83;4.37;;;15.20;99.90;;;;;;5028703;28;20429;-73
2022/10/21 03:29:30;;;;;;;14.00;4.80;;;15.30;99.90;;;;;;5014956;28;20432;-73
2022/10/21 03:31:56;;;;;;;7.63;4.10;;;15.30;99.90;;;;;;5009361;28;20385;-73
2022/10/21 03:34:21;;;;;;;8.50;4.20;;;15.30;99.90;;;;;;5022252;28;20403;-73
2022/10/21 03:36:47;;;;;;;7.72;3.65;;;15.30;99.90;;;;;;5028655;28;20432;-73
2022/10/21 03:39:13;;;;;;;10.00;4.33;;;15.40;99.90;;;;;;5028847;28;20481;-73
2022/10/21 03:41:38;;;;;;;9.37;4.27;;;15.40;99.90;;;;;;5028621;28;20874;-74
2022/10/21 03:44:04;;;;;;;9.67;4.60;;;15.40;99.90;;;;;;5017829;28;20476;-72
2022/10/21 03:46:29;;;;;;;11.82;4.30;;;15.40;99.90;;;;;;5008855;28;20771;-73
2022/10/21 03:48:55;;;;;;;8.73;3.80;;;15.40;99.90;;;;;;5008826;28;20531;-73
2022/10/21 03:51:21;;;;;;;13.77;4.73;;;15.50;99.90;;;;;;5007720;28;20404;-72
2022/10/21 03:53:46;;;;;;;9.43;4.50;;;15.50;99.90;;;;;;5008718;28;20422;-73
2022/10/21 03:56:12;;;;;;;10.00;4.70;;;15.40;99.90;;;;;;5010206;28;20391;-73
2022/10/21 03:58:38;;;;;;;6.33;4.13;;;15.30;99.90;;;;;;5028547;28;20391;-72
2022/10/21 04:01:04;;;;;;;6.22;4.20;;;15.30;99.90;;;;;;5028395;28;20753;-72
2022/10/21 04:03:29;;;;;;;10.87;4.90;;;15.30;99.90;;;;;;5028359;28;20394;-72
2022/10/21 04:05:55;;;;;;;7.80;4.57;;;15.30;99.90;;;;;;5010848;28;20895;-72
2022/10/21 04:08:20;;;;;;;9.77;4.80;;;15.20;99.90;;;;;;5008924;28;20434;-72
2022/10/21 04:10:46;;;;;;;7.85;4.90;;;15.20;99.90;;;;;;5007402;28;20853;-73
2022/10/21 04:13:12;;;;;;;10.55;4.85;;;15.20;99.90;;;;;;5008696;28;20740;-72
2022/10/21 04:15:38;;;;;;;9.20;4.68;;;15.20;99.90;;;;;;5022335;28;20390;-72
2022/10/21 04:18:05;;;;;;;7.50;4.80;;;15.20;99.90;;;;;;5028384;28;20490;-72
2022/10/21 04:20:30;;;;;;;10.38;5.30;;;15.20;99.90;;;;;;5013539;28;20424;-72
2022/10/21 04:22:56;;;;;;;10.87;4.53;;;15.20;99.90;;;;;;5008171;28;20428;-73
2022/10/21 04:25:21;;;;;;;11.73;5.17;;;15.30;99.90;;;;;;5007451;28;20519;-72
2022/10/21 04:27:47;;;;;;;8.25;4.45;;;15.30;99.90;;;;;;5008386;28;20507;-73
2022/10/21 04:30:12;;;;;;;9.90;4.97;;;15.20;99.90;;;;;;5008452;28;20819;-72
2022/10/21 04:32:38;;;;;;;10.35;4.60;;;15.30;99.90;;;;;;5031395;28;20446;-73
2022/10/21 04:35:04;;;;;;;8.60;5.22;;;15.20;99.90;;;;;;5027099;28;20397;-72
2022/10/21 04:37:29;;;;;;;7.82;4.93;;;15.30;99.90;;;;;;5008408;28;20836;-72
2022/10/21 04:39:56;;;;;;;9.40;5.50;;;15.20;99.90;;;;;;5007306;28;20409;-72
2022/10/21 04:42:22;;;;;;;13.48;5.55;;;15.20;99.90;;;;;;5005485;28;20438;-72
2022/10/21 04:44:47;;;;;;;14.25;5.60;;;15.20;99.90;;;;;;5021424;28;20404;-72
2022/10/21 04:47:13;;;;;;;8.93;4.70;;;15.20;99.90;;;;;;5002004;28;20409;-72
2022/10/21 04:49:39;;;;;;;10.67;4.87;;;15.20;99.90;;;;;;5018086;28;20391;-73
2022/10/21 04:52:04;;;;;;;9.13;4.77;;;15.20;99.90;;;;;;5052218;28;20396;-72
2022/10/21 04:54:30;;;;;;;8.45;4.97;;;15.20;99.90;;;;;;5068015;28;20391;-73
2022/10/21 04:56:55;;;;;;;10.25;4.60;;;15.20;99.90;;;;;;5031483;28;20409;-72
2022/10/21 04:59:21;;;;;;;12.17;5.07;;;15.10;99.90;;;;;;5009269;28;20889;-71
2022/10/21 05:01:46;;;;;;;7.63;5.00;;;15.20;99.90;;;;;;5004605;28;20480;-71
2022/10/21 05:04:12;;;;;;;7.70;5.30;;;15.20;99.90;;;;;;5009530;28;20410;-71
2022/10/21 05:06:37;;;;;;;9.83;5.20;;;15.20;99.90;;;;;;5004856;28;20549;-71
2022/10/21 05:09:03;;;;;;;10.63;5.10;;;15.20;99.90;;;;;;5050417;28;20410;-71
2022/10/21 05:11:29;;;;;;;11.77;5.20;;;15.20;99.90;;;;;;5006262;28;20396;-71
2022/10/21 05:13:55;;;;;;;11.80;4.82;;;15.20;99.90;;;;;;5009170;28;20397;-71
2022/10/21 05:16:20;;;;;;;7.95;5.00;;;15.10;99.90;;;;;;5028394;28;20785;-71
2022/10/21 05:18:46;;;;;;;9.95;5.43;;;15.10;99.90;;;;;;5034363;28;20447;-72
2022/10/21 05:21:12;;;;;;;8.65;5.30;;;15.10;99.90;;;;;;5043452;28;20409;-71
2022/10/21 05:23:37;;;;;;;9.57;5.10;;;15.10;99.90;;;;;;5013875;28;20407;-72
2022/10/21 05:26:03;;;;;;;9.40;5.20;;;15.10;99.90;;;;;;5010061;28;20894;-72
2022/10/21 05:28:29;;;;;;;10.70;5.40;;;15.10;99.90;;;;;;5024226;28;20414;-72
2022/10/21 05:30:54;;;;;;;11.65;5.20;;;15.10;99.90;;;;;;5015743;28;20413;-72
2022/10/21 05:33:20;;;;;;;9.40;5.10;;;15.20;99.90;;;;;;5015008;28;20417;-71
2022/10/21 05:35:59;;;;;;;11.60;5.83;;;15.20;99.90;;;;;;5018814;28;20412;-72
2022/10/21 05:38:25;;;;;;;9.30;4.97;;;15.20;99.90;;;;;;5021520;28;20944;-72
2022/10/21 05:40:51;;;;;;;10.43;5.90;;;15.20;99.90;;;;;;5027366;28;20428;-72
2022/10/21 05:43:17;;;;;;;11.02;5.50;;;15.20;99.90;;;;;;5010528;28;20424;-72
2022/10/21 05:45:42;;;;;;;9.47;5.70;;;15.20;99.90;;;;;;5017107;28;20413;-72
2022/10/21 05:48:08;;;;;;;8.33;5.70;;;15.30;99.90;;;;;;5026148;28;20475;-72
2022/10/21 05:50:33;;;;;;;9.85;5.60;;;15.20;99.90;;;;;;5024582;28;21080;-71
2022/10/21 05:52:59;;;;;;;9.57;5.50;;;15.20;99.90;;;;;;5013242;28;20496;-72
2022/10/21 05:55:24;;;;;;;8.17;5.20;;;15.20;99.90;;;;;;5014498;28;20476;-72
2022/10/21 05:57:50;;;;;;;10.68;5.82;;;15.20;99.90;;;;;;5008920;28;20512;-71
2022/10/21 06:00:15;;;;;;;9.30;5.73;;;15.20;99.90;;;;;;5013519;28;20440;-71
2022/10/21 06:02:41;;;;;;;10.93;5.80;;;15.20;99.90;;;;;;5018319;28;20405;-71
2022/10/21 06:05:06;;;;;;;10.05;5.80;;;15.20;99.90;;;;;;5030418;28;20416;-71
2022/10/21 06:07:32;;;;;;;11.07;5.60;;;15.20;99.90;;;;;;5009189;28;20555;-71
2022/10/21 06:09:58;;;;;;;10.75;5.32;;;15.20;99.90;;;;;;5021082;28;20414;-71
2022/10/21 06:12:24;;;;;;;8.70;5.10;;;15.20;99.90;;;;;;5020723;28;20485;-71
2022/10/21 06:14:49;;;;;;;11.15;5.20;;;15.30;99.90;;;;;;5015635;28;20480;-72
2022/10/21 06:17:15;;;;;;;10.15;4.65;;;15.30;99.90;;;;;;5014594;28;20432;-72
2022/10/21 06:19:40;;;;;;;9.57;5.05;;;15.20;99.90;;;;;;5006398;28;20414;-73
2022/10/21 06:22:06;;;;;;;8.40;4.50;;;15.20;99.90;;;;;;5024573;28;20847;-72
2022/10/21 06:24:32;;;;;;;5.87;4.50;;;15.20;99.90;;;;;;5021475;28;20448;-72
2022/10/21 06:26:58;;;;;;;7.63;4.87;;;15.10;99.90;;;;;;5028521;28;20493;-72
2022/10/21 06:29:24;;;;;;;12.47;4.80;;;15.20;99.90;;;;;;5030102;28;20396;-72
2022/10/21 06:31:49;;;;;;;9.52;5.00;;;15.20;99.90;;;;;;5029057;28;20876;-73
2022/10/21 06:34:15;;;;;;;6.70;4.03;;;15.20;99.90;;;;;;5019936;28;20404;-72
2022/10/21 06:36:40;;;;;;;9.07;5.50;;;15.10;99.90;;;;;;5009956;28;20387;-72
2022/10/21 06:39:07;;;;;;;8.47;4.80;;;15.20;99.90;;;;;;5010494;28;20716;-72
2022/10/21 06:41:32;;;;;;;8.10;5.00;;;15.20;99.90;;;;;;5010010;28;20803;-72
2022/10/21 06:43:58;;;;;;;9.60;4.72;;;15.20;99.90;;;;;;5015604;28;20475;-72
2022/10/21 06:46:24;;;;;;;8.40;4.90;;;15.20;99.90;;;;;;5028014;28;20407;-72
2022/10/21 06:48:50;;;;;;;7.50;4.55;;;15.20;99.90;;;;;;5028752;28;20403;-73
2022/10/21 06:51:19;;;;;;;8.50;4.60;;;15.10;99.90;;;;;;5044887;28;20387;-74
2022/10/21 06:53:45;;;;;;;7.95;5.10;;;15.10;99.90;;;;;;5029306;28;20395;-74
2022/10/21 06:56:16;;;;;;;8.25;5.13;;;15.20;99.90;;;;;;5012519;28;20400;-74
2022/10/21 06:58:45;;;;;;;7.30;4.80;;;15.30;99.90;;;;;;5009991;28;20391;-74
2022/10/21 07:01:19;;;;;;;9.35;5.00;;;15.30;99.90;;;;;;5009536;28;20867;-74
2022/10/21 07:03:45;;;;;;;8.65;4.70;;;15.30;99.90;;;;;;5009421;28;20393;-74
2022/10/21 07:06:11;;;;;;;6.38;4.38;;;15.20;99.90;;;;;;5027109;28;20531;-74
2022/10/21 07:08:36;;;;;;;7.15;5.10;;;15.20;99.90;;;;;;5029066;28;20410;-74
2022/10/21 07:11:02;;;;;;;9.50;4.90;;;15.20;99.90;;;;;;5029379;28;20859;-74
2022/10/21 07:13:28;;;;;;;9.73;5.45;;;15.30;99.90;;;;;;5029028;28;20761;-74
2022/10/21 07:16:03;;;;;;;7.35;4.88;;;15.30;99.90;;;;;;5013020;28;20740;-74
2022/10/21 07:18:29;;;;;;;8.80;4.70;;;15.20;99.90;;;;;;5015174;28;20431;-74
2022/10/21 07:20:55;;;;;;;6.35;4.38;;;15.20;99.90;;;;;;5028056;28;21149;-74
2022/10/21 07:23:21;;;;;;;9.32;5.00;;;15.20;99.90;;;;;;5008949;28;20422;-75
2022/10/21 07:25:46;;;;;;;7.65;4.53;;;15.20;99.90;;;;;;5014463;28;20400;-75
2022/10/21 07:28:12;;;;;;;8.97;4.50;;;15.30;99.90;;;;;;5028392;28;20968;-75
2022/10/21 07:30:42;;;;;;;6.13;4.90;;;15.30;99.90;;;;;;5016747;28;20487;-75
2022/10/21 07:33:08;;;;;;;7.65;5.00;;;15.40;99.90;;;;;;5008761;28;20397;-74
2022/10/21 07:35:33;;;;;;;6.60;4.50;;;15.30;99.90;;;;;;5009145;28;20980;-75
2022/10/21 07:37:59;;;;;;;7.97;4.70;;;15.40;99.90;;;;;;5008704;28;20393;-75
2022/10/21 07:40:27;;;;;;;7.45;4.65;;;15.40;99.90;;;;;;5016899;28;20407;-75
2022/10/21 07:42:53;;;;;;;7.93;3.58;;;15.40;99.90;;;;;;5026001;28;20391;-74
2022/10/21 07:45:18;;;;;;;4.65;2.97;;;15.40;99.90;;;;;;5008949;28;20408;-74
2022/10/21 07:47:44;;;;;;;4.07;2.70;;;15.40;99.90;;;;;;5008790;28;20484;-73
2022/10/21 07:50:10;;;;;;;4.83;2.30;;;15.40;99.90;;;;;;5008875;28;20393;-73
2022/10/21 07:52:37;;;;;;;5.60;2.35;;;15.40;99.90;;;;;;5008532;28;20397;-74
2022/10/21 07:55:03;;;;;;;4.68;2.30;;;15.40;99.90;;;;;;5026330;28;20423;-74
2022/10/21 07:57:28;;;;;;;4.82;2.40;;;15.40;99.90;;;;;;5028677;28;20423;-73
2022/10/21 07:59:54;;;;;;;4.38;2.33;;;15.40;99.90;;;;;;5028560;28;20471;-74
2022/10/21 08:02:20;;;;;;;4.57;2.50;;;15.20;99.90;;;;;;5024902;28;20905;-74
2022/10/21 08:04:45;;;;;;;5.67;2.77;;;15.30;99.90;;;;;;5008540;28;20429;-74
2022/10/21 08:07:11;;;;;;;4.45;2.67;;;15.40;99.90;;;;;;5008607;28;20411;-74
2022/10/21 08:09:36;;;;;;;4.68;2.40;;;15.40;99.90;;;;;;5008556;28;20397;-73
2022/10/21 08:12:02;;;;;;;5.03;3.33;;;15.40;99.90;;;;;;5008717;28;20464;-74
2022/10/21 08:14:28;;;;;;;4.53;2.50;;;15.50;99.90;;;;;;5013154;28;20482;-74
2022/10/21 08:16:54;;;;;;;3.40;3.10;;;15.50;99.90;;;;;;5028542;28;20387;-74
2022/10/21 08:19:26;;;;;;;3.58;2.20;;;15.50;99.90;;;;;;5028191;28;20383;-74
2022/10/21 08:21:51;;;;;;;3.83;2.38;;;15.50;99.90;;;;;;5019397;28;20381;-74
2022/10/21 08:24:17;;;;;;;5.20;1.88;;;15.50;99.90;;;;;;5016392;28;20401;-74
2022/10/21 08:26:42;;;;;;;1.80;1.45;;;15.50;99.90;;;;;;5027979;28;20865;-74
2022/10/21 08:29:08;;;;;;;3.67;1.50;;;15.80;99.90;;;;;;5027997;28;20407;-74
2022/10/21 08:31:33;;;;;;;4.20;1.27;;;15.80;99.90;;;;;;5023793;28;20462;-74
2022/10/21 08:33:59;;;;;;;1.83;1.20;;;16.10;99.90;;;;;;5007760;28;20441;-75
2022/10/21 08:36:25;;;;;;;1.23;1.07;;;16.40;99.90;;;;;;5008284;28;20767;-75
2022/10/21 08:38:52;;;;;;;4.00;1.00;;;16.40;99.90;;;;;;5008083;28;20407;-74
2022/10/21 08:41:29;;;;;;;2.40;0.90;;;16.70;99.90;;;;;;5007298;28;20472;-73
2022/10/21 08:44:28;;;;;;;1.60;1.00;;;16.90;99.90;;;;;;5012911;28;20404;-73
2022/10/21 08:46:56;;;;;;;1.63;0.60;;;16.90;99.90;;;;;;5008019;28;20425;-73
2022/10/21 08:49:44;;;;;;;1.38;0.70;;;16.90;99.90;;;;;;5007961;28;20420;-74
2022/10/21 08:52:18;;;;;;;3.42;0.90;;;17.00;99.90;;;;;;5007828;28;20381;-73
2022/10/21 08:54:50;;;;;;;1.90;0.68;;;17.00;99.90;;;;;;5031910;28;20440;-73
2022/10/21 08:57:16;;;;;;;1.40;0.90;;;16.90;99.90;;;;;;5006431;28;20400;-74
2022/10/21 08:59:41;;;;;;;1.90;0.70;;;16.80;99.90;;;;;;5007784;28;20897;-73
2022/10/21 09:02:46;;;;;;;2.40;0.70;;;16.90;99.90;;;;;;5007810;28;20385;-73
2022/10/21 09:05:49;;;;;;;1.70;0.90;;;16.80;99.90;;;;;;5021005;28;20391;-74
2022/10/21 09:08:19;;;;;;;1.48;0.65;;;16.90;99.90;;;;;;5025664;28;20422;-74
2022/10/21 09:10:59;;;;;;;1.55;0.70;;;16.90;99.90;;;;;;5040079;28;20388;-74
2022/10/21 09:14:00;;;;;;;0.70;0.60;;;16.70;99.90;;;;;;5012034;28;20934;-73
2022/10/21 09:16:49;;;;;;;2.00;0.70;;;16.60;99.90;;;;;;5037666;28;20482;-73
2022/10/21 09:19:17;;;;;;;0.95;0.68;;;16.50;99.90;;;;;;5005731;28;20438;-74
2022/10/21 09:21:49;;;;;;;1.40;0.70;;;16.70;99.90;;;;;;5005106;28;20469;-74
2022/10/21 09:24:40;;;;;;;1.60;0.50;;;16.80;99.90;;;;;;5006047;28;20445;-74
2022/10/21 09:27:09;;;;;;;2.27;0.70;;;16.90;99.90;;;;;;5022218;28;20419;-74
2022/10/21 09:29:45;;;;;;;0.60;0.50;;;16.80;99.90;;;;;;5027121;28;20395;-74
2022/10/21 09:32:21;;;;;;;1.00;0.50;;;16.90;99.90;;;;;;5042467;28;20391;-74
2022/10/21 09:35:14;;;;;;;0.70;0.50;;;16.80;99.90;;;;;;5026830;28;20462;-74
2022/10/21 09:37:50;;;;;;;0.80;0.63;;;16.70;99.90;;;;;;5017975;28;20429;-74
2022/10/21 09:40:29;;;;;;;2.25;0.45;;;16.70;99.90;;;;;;5007269;28;20754;-74
2022/10/21 09:43:00;;;;;;;1.00;0.50;;;16.60;99.90;;;;;;5007874;28;20751;-74
2022/10/21 09:45:37;;;;;;;1.10;0.60;;;16.40;99.90;;;;;;5041861;28;20407;-74
2022/10/21 09:48:17;;;;;;;1.00;0.70;;;16.20;99.90;;;;;;5026903;28;20407;-74
2022/10/21 09:50:45;;;;;;;2.00;0.70;;;16.30;99.90;;;;;;5042270;28;20387;-74
2022/10/21 09:53:16;;;;;;;1.30;0.70;;;16.40;99.90;;;;;;5039151;28;20442;-74
2022/10/21 09:55:45;;;;;;;1.90;0.60;;;16.30;99.90;;;;;;5005850;28;20409;-74
2022/10/21 09:58:26;;;;;;;3.10;0.70;;;16.30;99.90;;;;;;5007170;28;20393;-74
2022/10/21 10:00:52;;;;;;;2.30;0.70;;;16.30;99.90;;;;;;5012043;28;20399;-75
2022/10/21 10:03:41;;;;;;;2.88;0.90;;;16.10;99.90;;;;;;5026758;28;20474;-73
2022/10/21 10:06:07;;;;;;;1.73;0.80;;;16.00;99.90;;;;;;5026585;28;20899;-73
2022/10/21 10:08:35;;;;;;;2.47;0.90;;;15.90;99.90;;;;;;5026866;28;20439;-73
2022/10/21 10:11:21;;;;;;;1.35;0.80;;;15.70;99.90;;;;;;5021126;28;20759;-72
2022/10/21 10:13:49;;;;;;;2.17;1.00;;;15.60;99.90;;;;;;5006828;28;20396;-72
2022/10/21 10:16:28;;;;;;;3.60;1.10;;;15.50;99.90;;;;;;5006846;28;20897;-72
2022/10/21 10:19:19;;;;;;;2.38;1.17;;;15.50;99.90;;;;;;5008233;28;20424;-73
2022/10/21 10:22:05;;;;;;;1.70;1.00;;;15.40;99.90;;;;;;5006923;28;20409;-73
2022/10/21 10:24:32;;;;;;;2.20;1.30;;;15.50;99.90;;;;;;5009862;28;20404;-73
2022/10/21 10:27:31;;;;;;;5.78;1.30;;;15.40;99.90;;;;;;5009030;28;20821;-72
2022/10/21 10:29:59;;;;;;;2.50;1.20;;;15.40;99.90;;;;;;5012491;28;20407;-72
2022/10/21 10:32:30;;;;;;;2.50;1.50;;;15.40;99.90;;;;;;5029860;28;20417;-73
2022/10/21 10:34:59;;;;;;;3.63;1.10;;;15.50;99.90;;;;;;5029777;28;20379;-73
2022/10/21 10:37:36;;;;;;;4.85;1.30;;;15.50;99.90;;;;;;5029902;28;20439;-72
2022/10/21 10:40:06;;;;;;;2.00;1.40;;;15.50;99.90;;;;;;5016324;28;20416;-72
2022/10/21 10:42:36;;;;;;;5.05;1.23;;;15.50;99.90;;;;;;5009912;28;20589;-73
2022/10/21 10:45:10;;;;;;;1.80;1.00;;;15.60;99.90;;;;;;5010000;28;20405;-73
2022/10/21 10:47:47;;;;;;;2.38;1.30;;;15.50;99.90;;;;;;5009921;28;20460;-73
2022/10/21 10:50:45;;;;;;;2.80;1.42;;;15.50;99.90;;;;;;5029679;28;20869;-73
2022/10/21 10:53:27;;;;;;;2.78;1.50;;;15.50;99.90;;;;;;5044765;28;20387;-73
2022/10/21 10:56:21;;;;;;;2.53;1.30;;;15.50;99.90;;;;;;5029697;28;20383;-73
2022/10/21 10:58:57;;;;;;;4.20;1.40;;;15.60;99.90;;;;;;5036463;28;20967;-73
2022/10/21 11:01:34;;;;;;;2.03;0.95;;;15.60;99.90;;;;;;5044792;28;20475;-73
2022/10/21 11:04:15;;;;;;;1.65;0.80;;;15.80;99.90;;;;;;5029001;28;20394;-74
2022/10/21 11:06:46;;;;;;;2.75;0.93;;;16.00;99.90;;;;;;5029232;28;20387;-74
2022/10/21 11:09:12;;;;;;;2.27;1.10;;;16.00;99.90;;;;;;5025121;28;20549;-74
2022/10/21 11:11:45;;;;;;;3.17;1.20;;;16.00;99.90;;;;;;5009580;28;20456;-74
2022/10/21 11:14:17;;;;;;;1.70;0.80;;;16.00;99.90;;;;;;5008091;28;20418;-74
2022/10/21 11:17:05;;;;;;;2.00;0.80;;;15.90;99.90;;;;;;5009521;28;20389;-73
2022/10/21 11:19:55;;;;;;;1.50;0.80;;;15.90;99.90;;;;;;5011497;28;20442;-73
2022/10/21 11:22:31;;;;;;;1.63;0.90;;;15.90;99.90;;;;;;5009469;28;20393;-74
2022/10/21 11:25:13;;;;;;;1.75;0.70;;;16.00;99.90;;;;;;5008048;28;20396;-73
2022/10/21 11:27:50;;;;;;;2.17;0.70;;;16.00;99.90;;;;;;5009362;28;20408;-72
2022/10/21 11:30:19;;;;;;;2.97;1.27;;;16.10;99.90;;;;;;5009506;28;20400;-73
2022/10/21 11:33:08;;;;;;;1.23;0.80;;;16.00;99.90;;;;;;5009107;28;20396;-72
2022/10/21 11:36:03;;;;;;;3.55;0.90;;;16.00;99.90;;;;;;5009212;28;20384;-75
2022/10/21 11:38:38;;;;;;;2.55;1.20;;;16.00;99.90;;;;;;5024375;28;20757;-72
2022/10/21 11:41:19;;;;;;;3.60;1.30;;;16.00;99.90;;;;;;5029025;28;20450;-73
2022/10/21 11:44:22;;;;;;;2.00;0.98;;;15.90;99.90;;;;;;5028637;28;20552;-73
2022/10/21 11:47:37;;;;;;;2.10;1.10;;;15.90;99.90;;;;;;5027829;28;20904;-73
2022/10/21 11:50:18;;;;;;;2.50;1.50;;;15.90;99.90;;;;;;5052427;28;20526;-73
2022/10/21 11:53:11;;;;;;;1.60;0.90;;;15.80;99.90;;;;;;5014480;28;20446;-73
2022/10/21 11:55:57;;;;;;;3.23;1.10;;;15.80;99.90;;;;;;5016545;28;20394;-73
2022/10/21 11:58:43;;;;;;;2.20;1.10;;;15.80;99.90;;;;;;5028322;28;20524;-73
2022/10/21 12:01:11;;;;;;;2.08;0.73;;;15.80;99.90;;;;;;5028662;28;20372;-74
2022/10/21 12:03:49;;;;;;;2.35;1.00;;;15.80;99.90;;;;;;5028353;28;20387;-74
2022/10/21 12:06:24;;;;;;;1.08;0.70;;;15.80;99.90;;;;;;5015832;28;20513;-74
2022/10/21 12:08:58;;;;;;;2.43;0.80;;;15.60;99.90;;;;;;5008949;28;20416;-74
2022/10/21 12:11:48;;;;;;;1.73;0.80;;;15.60;99.90;;;;;;5017634;28;20391;-74
2022/10/21 12:14:28;;;;;;;3.03;0.80;;;15.40;99.90;;;;;;5028617;28;20379;-74
2022/10/21 12:16:57;;;;;;;2.40;1.00;;;15.30;99.90;;;;;;5028208;28;20384;-74
2022/10/21 12:19:24;;;;;;;1.30;0.80;;;15.30;99.90;;;;;;5028489;28;20402;-74
2022/10/21 12:21:51;;;;;;;1.50;0.90;;;15.30;99.90;;;;;;5016748;28;20393;-74
2022/10/21 12:24:24;;;;;;;1.20;0.95;;;15.30;99.90;;;;;;5008398;28;20393;-74
2022/10/21 12:27:13;;;;;;;1.93;1.03;;;15.40;99.90;;;;;;5007332;28;20556;-73
2022/10/21 12:30:07;;;;;;;2.63;1.25;;;15.30;99.90;;;;;;5008429;28;20486;-73
2022/10/21 12:32:32;;;;;;;2.90;1.20;;;15.30;99.90;;;;;;5008242;28;20373;-73
2022/10/21 12:35:00;;;;;;;1.97;0.90;;;15.20;99.90;;;;;;5008431;28;20753;-73
2022/10/21 12:38:04;;;;;;;1.88;1.00;;;15.30;99.90;;;;;;5021750;28;20388;-73
2022/10/21 12:40:31;;;;;;;2.20;0.75;;;15.20;99.90;;;;;;5018617;28;20401;-74
2022/10/21 12:43:00;;;;;;;2.28;0.70;;;15.30;99.90;;;;;;5007943;28;20905;-74
2022/10/21 12:45:28;;;;;;;2.70;1.10;;;15.30;99.90;;;;;;5007183;28;20428;-74
2022/10/21 12:47:54;;;;;;;2.72;0.80;;;15.30;99.90;;;;;;5006700;28;20507;-76
2022/10/21 12:50:29;;;;;;;2.97;0.80;;;15.40;99.90;;;;;;5009200;28;20875;-73
2022/10/21 12:53:22;;;;;;;2.10;0.70;;;15.40;99.90;;;;;;5007895;28;20766;-73
2022/10/21 12:55:51;;;;;;;2.30;1.10;;;15.30;99.90;;;;;;5008146;28;20389;-74
2022/10/21 12:58:29;;;;;;;2.90;0.80;;;15.20;99.90;;;;;;5020447;28;20402;-73
2022/10/21 13:00:56;;;;;;;2.80;1.15;;;15.10;99.90;;;;;;5027837;28;20900;-74
2022/10/21 13:03:44;;;;;;;2.70;0.90;;;15.10;99.90;;;;;;5027408;28;20479;-74